Time;durP1;ratioP1;P1;durP2;ratioP2;P2;SDS_P1;SDS_P2;PMS_P1;PMS_P2;Temp;Humidity;BMP_temperature;BMP_pressure;BME280_temperature;BME280_humidity;BME280_pressure;Samples;Min_cycle;Max_cycle;Signal;HPM_P1;HPM_P2
2021/08/20 00:00:13;;;;;;;0.70;0.60;;;19.00;99.90;;;;;;5079701;28;20236;-80
2021/08/20 00:02:39;;;;;;;0.30;0.30;;;19.10;99.90;;;;;;5087216;28;20207;-80
2021/08/20 00:05:06;;;;;;;0.40;0.40;;;19.10;99.90;;;;;;5087960;28;20204;-80
2021/08/20 00:07:32;;;;;;;0.93;0.50;;;19.10;99.90;;;;;;5089294;28;20192;-80
2021/08/20 00:09:57;;;;;;;0.30;0.30;;;19.10;99.90;;;;;;5086142;28;20571;-80
2021/08/20 00:12:24;;;;;;;0.40;0.40;;;19.20;99.90;;;;;;5087502;28;20185;-80
2021/08/20 00:14:50;;;;;;;0.30;0.30;;;19.20;99.90;;;;;;5088606;28;20188;-80
2021/08/20 00:17:16;;;;;;;0.10;0.10;;;19.20;99.90;;;;;;5088772;28;20205;-80
2021/08/20 00:19:42;;;;;;;0.40;0.40;;;19.20;99.90;;;;;;5088190;28;20299;-80
2021/08/20 00:22:09;;;;;;;0.20;0.20;;;19.10;99.90;;;;;;5084522;28;20219;-80
2021/08/20 00:24:36;;;;;;;0.20;0.20;;;19.10;99.90;;;;;;5089195;28;20208;-81
2021/08/20 00:27:02;;;;;;;0.53;0.53;;;19.10;99.90;;;;;;5087378;28;20181;-79
2021/08/20 00:29:28;;;;;;;0.30;0.30;;;19.00;99.90;;;;;;5085321;28;20275;-79
2021/08/20 00:31:53;;;;;;;0.87;0.53;;;18.90;99.90;;;;;;5076318;28;20190;-81
2021/08/20 00:34:19;;;;;;;0.37;0.37;;;18.80;99.90;;;;;;5081893;28;20191;-80
2021/08/20 00:36:45;;;;;;;0.20;0.20;;;18.70;99.90;;;;;;5081215;28;20212;-81
2021/08/20 00:39:12;;;;;;;0.80;0.33;;;18.70;99.90;;;;;;5065615;28;20690;-80
2021/08/20 00:41:42;;;;;;;0.90;0.37;;;18.80;99.90;;;;;;5067874;28;20305;-80
2021/08/20 00:44:08;;;;;;;0.77;0.37;;;18.90;99.90;;;;;;5073889;28;20653;-80
2021/08/20 00:46:34;;;;;;;0.40;0.37;;;18.90;99.90;;;;;;5069111;28;20243;-80
2021/08/20 00:48:59;;;;;;;1.37;0.70;;;18.90;99.90;;;;;;5067947;28;20328;-80
2021/08/20 00:51:29;;;;;;;0.60;0.47;;;18.90;99.90;;;;;;5064092;28;20266;-80
2021/08/20 00:53:56;;;;;;;0.40;0.40;;;18.80;99.90;;;;;;5073085;28;20550;-81
2021/08/20 00:56:23;;;;;;;0.20;0.20;;;18.80;99.90;;;;;;5073592;28;20897;-80
2021/08/20 00:58:49;;;;;;;0.37;0.37;;;18.80;99.90;;;;;;5072086;28;20185;-80
2021/08/20 01:01:15;;;;;;;0.40;0.40;;;18.70;99.90;;;;;;5073832;28;20204;-81
2021/08/20 01:03:41;;;;;;;0.43;0.20;;;18.70;99.90;;;;;;5070820;28;20188;-80
2021/08/20 01:06:07;;;;;;;0.43;0.37;;;18.60;99.90;;;;;;5062008;28;20678;-79
2021/08/20 01:08:35;;;;;;;0.30;0.30;;;18.50;99.90;;;;;;5072909;28;20274;-79
2021/08/20 01:11:03;;;;;;;0.10;0.10;;;18.50;99.90;;;;;;5064144;28;20208;-79
2021/08/20 01:13:37;;;;;;;0.47;0.40;;;18.40;99.90;;;;;;5073510;28;20178;-80
2021/08/20 01:16:04;;;;;;;0.40;0.40;;;18.40;99.90;;;;;;5061557;28;20182;-79
2021/08/20 01:18:32;;;;;;;0.20;0.20;;;18.50;99.90;;;;;;5071710;28;20191;-81
2021/08/20 01:21:00;;;;;;;0.63;0.57;;;18.50;99.90;;;;;;5075543;28;20670;-81
2021/08/20 01:23:27;;;;;;;0.43;0.43;;;18.50;99.90;;;;;;5066810;28;20194;-80
2021/08/20 01:25:54;;;;;;;0.47;0.47;;;18.50;99.90;;;;;;5088034;28;20209;-80
2021/08/20 01:28:21;;;;;;;0.33;0.33;;;18.40;99.90;;;;;;5068787;28;20184;-79
2021/08/20 01:30:48;;;;;;;0.43;0.43;;;18.40;99.90;;;;;;5069349;28;20205;-79
2021/08/20 01:33:14;;;;;;;0.30;0.30;;;18.40;99.90;;;;;;5064391;28;20185;-80
2021/08/20 01:35:40;;;;;;;0.30;0.30;;;18.40;99.90;;;;;;5074071;28;20264;-80
2021/08/20 01:38:06;;;;;;;0.50;0.50;;;18.30;99.90;;;;;;5070917;28;20193;-81
2021/08/20 01:40:32;;;;;;;0.30;0.30;;;18.30;99.90;;;;;;5072383;28;20680;-80
2021/08/20 01:42:57;;;;;;;0.30;0.30;;;18.20;99.90;;;;;;5074946;28;20196;-80
2021/08/20 01:45:23;;;;;;;0.43;0.30;;;18.20;99.90;;;;;;5072277;28;20683;-80
2021/08/20 01:47:48;;;;;;;0.20;0.20;;;18.20;99.90;;;;;;5070287;28;20856;-80
2021/08/20 01:50:14;;;;;;;0.27;0.27;;;18.20;99.90;;;;;;5064412;28;20203;-80
2021/08/20 01:52:40;;;;;;;0.43;0.43;;;18.20;99.90;;;;;;5067758;28;20266;-80
2021/08/20 01:55:12;;;;;;;0.23;0.23;;;18.20;99.90;;;;;;5056782;28;20174;-80
2021/08/20 01:57:45;;;;;;;0.30;0.30;;;18.20;99.90;;;;;;5084064;28;20194;-81
2021/08/20 02:00:11;;;;;;;0.50;0.50;;;18.30;99.90;;;;;;5069554;28;20212;-81
2021/08/20 02:02:37;;;;;;;0.30;0.30;;;18.30;99.90;;;;;;5068778;28;20188;-80
2021/08/20 02:05:03;;;;;;;0.60;0.33;;;18.20;99.90;;;;;;5072112;28;20204;-80
2021/08/20 02:07:28;;;;;;;0.50;0.50;;;18.20;99.90;;;;;;5076499;28;20196;-80
2021/08/20 02:09:54;;;;;;;0.20;0.20;;;18.10;99.90;;;;;;5070784;28;20711;-82
2021/08/20 02:12:19;;;;;;;0.63;0.23;;;18.10;99.90;;;;;;5070769;28;20203;-83
2021/08/20 02:14:45;;;;;;;1.20;0.70;;;18.10;99.90;;;;;;5066069;28;20272;-81
2021/08/20 02:17:11;;;;;;;1.20;0.53;;;18.00;99.90;;;;;;5059701;28;20186;-81
2021/08/20 02:19:36;;;;;;;0.47;0.47;;;18.00;99.90;;;;;;5070122;28;20242;-81
2021/08/20 02:22:02;;;;;;;0.10;0.10;;;17.90;99.90;;;;;;5063279;28;20196;-80
2021/08/20 02:24:28;;;;;;;0.50;0.50;;;17.90;99.90;;;;;;5070128;28;20264;-79
2021/08/20 02:26:53;;;;;;;0.50;0.50;;;17.90;99.90;;;;;;5068318;28;20181;-83
2021/08/20 02:29:19;;;;;;;0.40;0.20;;;17.80;99.90;;;;;;5059322;28;20205;-81
2021/08/20 02:31:45;;;;;;;0.37;0.37;;;17.80;99.90;;;;;;5063118;28;20189;-80
2021/08/20 02:34:10;;;;;;;0.40;0.40;;;17.90;99.90;;;;;;5065242;28;20653;-80
2021/08/20 02:36:36;;;;;;;0.30;0.27;;;17.90;99.90;;;;;;5065371;28;20208;-81
2021/08/20 02:39:02;;;;;;;0.57;0.57;;;17.90;99.90;;;;;;5071411;28;20268;-81
2021/08/20 02:41:29;;;;;;;1.03;0.60;;;17.90;99.90;;;;;;5069627;28;20196;-81
2021/08/20 02:43:55;;;;;;;0.40;0.40;;;17.90;99.90;;;;;;5073921;28;20184;-81
2021/08/20 02:46:20;;;;;;;0.47;0.47;;;17.80;99.90;;;;;;5066543;28;20184;-81
2021/08/20 02:48:46;;;;;;;0.47;0.47;;;17.80;99.90;;;;;;5060728;28;20187;-79
2021/08/20 02:51:12;;;;;;;0.40;0.40;;;17.70;99.90;;;;;;5068606;28;20684;-81
2021/08/20 02:53:39;;;;;;;0.30;0.30;;;17.70;99.90;;;;;;5071289;28;20178;-81
2021/08/20 02:56:05;;;;;;;0.57;0.57;;;17.70;99.90;;;;;;5062347;28;20240;-81
2021/08/20 02:58:30;;;;;;;0.50;0.50;;;17.60;99.90;;;;;;5062775;28;20182;-81
2021/08/20 03:00:56;;;;;;;1.00;0.47;;;17.60;99.90;;;;;;5066186;28;20293;-81
2021/08/20 03:03:21;;;;;;;0.30;0.20;;;17.60;99.90;;;;;;5060604;28;20192;-81
2021/08/20 03:05:47;;;;;;;0.67;0.30;;;17.50;99.90;;;;;;5095019;28;20213;-80
2021/08/20 03:08:12;;;;;;;0.47;0.47;;;17.40;99.90;;;;;;5070533;28;20564;-81
2021/08/20 03:10:40;;;;;;;0.20;0.20;;;17.40;99.90;;;;;;5066373;28;20201;-81
2021/08/20 03:13:06;;;;;;;0.20;0.20;;;17.40;99.90;;;;;;5065218;28;20255;-81
2021/08/20 03:15:31;;;;;;;0.20;0.20;;;17.30;99.90;;;;;;5063456;28;20641;-80
2021/08/20 03:17:57;;;;;;;0.30;0.30;;;17.30;99.90;;;;;;5060565;28;20676;-79
2021/08/20 03:20:22;;;;;;;0.30;0.30;;;17.30;99.90;;;;;;5067403;28;20212;-81
2021/08/20 03:22:48;;;;;;;0.50;0.43;;;17.30;99.90;;;;;;5068931;28;20341;-81
2021/08/20 03:25:13;;;;;;;0.20;0.20;;;17.20;99.90;;;;;;5059359;28;20221;-80
2021/08/20 03:27:39;;;;;;;0.27;0.27;;;17.20;99.90;;;;;;5063089;28;20185;-81
2021/08/20 03:30:05;;;;;;;0.60;0.60;;;17.10;99.90;;;;;;5066495;28;20212;-81
2021/08/20 03:32:31;;;;;;;0.30;0.30;;;17.10;99.90;;;;;;5069937;28;20603;-81
2021/08/20 03:34:57;;;;;;;0.30;0.30;;;17.00;99.90;;;;;;5076391;28;20189;-81
2021/08/20 03:37:22;;;;;;;0.20;0.20;;;17.00;99.90;;;;;;5070726;28;20215;-80
2021/08/20 03:39:48;;;;;;;0.50;0.50;;;17.00;99.90;;;;;;5069003;28;20205;-80
2021/08/20 03:42:13;;;;;;;0.20;0.20;;;17.00;99.90;;;;;;5067323;28;20577;-81
2021/08/20 03:44:39;;;;;;;0.30;0.30;;;17.00;99.90;;;;;;5061229;28;20279;-81
2021/08/20 03:47:05;;;;;;;0.30;0.30;;;16.90;99.90;;;;;;5075410;28;20183;-81
2021/08/20 03:49:30;;;;;;;0.50;0.50;;;16.80;99.90;;;;;;5067231;28;20263;-80
2021/08/20 03:51:56;;;;;;;0.47;0.47;;;16.70;99.90;;;;;;5070912;28;20203;-80
2021/08/20 03:54:22;;;;;;;2.10;0.70;;;16.60;99.90;;;;;;5069300;28;20188;-81
2021/08/20 03:56:47;;;;;;;1.00;0.53;;;16.60;99.90;;;;;;5064649;28;20648;-81
2021/08/20 03:59:13;;;;;;;0.20;0.20;;;16.50;99.90;;;;;;5082278;28;20209;-81
2021/08/20 04:01:38;;;;;;;0.77;0.77;;;16.50;99.90;;;;;;5065269;28;20177;-81
2021/08/20 04:04:04;;;;;;;1.30;0.90;;;16.40;99.90;;;;;;5088451;28;20751;-82
2021/08/20 04:06:29;;;;;;;0.20;0.20;;;16.40;99.90;;;;;;5072816;28;20172;-81
2021/08/20 04:08:55;;;;;;;0.20;0.20;;;16.40;99.90;;;;;;5071256;28;20218;-81
2021/08/20 04:11:21;;;;;;;0.43;0.43;;;16.30;99.90;;;;;;5063552;28;20181;-79
2021/08/20 04:13:46;;;;;;;0.67;0.60;;;16.30;99.90;;;;;;5066568;28;20176;-81
2021/08/20 04:16:12;;;;;;;0.20;0.20;;;16.30;99.90;;;;;;5072277;28;20264;-81
2021/08/20 04:18:41;;;;;;;1.27;0.40;;;16.30;99.90;;;;;;5094876;28;20598;-81
2021/08/20 04:21:07;;;;;;;0.20;0.20;;;16.30;99.90;;;;;;5075382;28;20219;-81
2021/08/20 04:23:34;;;;;;;0.47;0.40;;;16.30;99.90;;;;;;5066089;28;20265;-81
2021/08/20 04:25:59;;;;;;;0.20;0.20;;;16.20;99.90;;;;;;5066233;28;20272;-80
2021/08/20 04:28:25;;;;;;;0.20;0.20;;;16.20;99.90;;;;;;5068207;28;20310;-79
2021/08/20 04:30:51;;;;;;;0.30;0.30;;;16.30;99.90;;;;;;5068535;28;20750;-80
2021/08/20 04:33:17;;;;;;;0.47;0.47;;;16.30;99.90;;;;;;5073914;28;20847;-81
2021/08/20 04:35:42;;;;;;;0.43;0.43;;;16.20;99.90;;;;;;5070423;28;20195;-81
2021/08/20 04:38:08;;;;;;;0.10;0.10;;;16.20;99.90;;;;;;5071995;28;20188;-81
2021/08/20 04:40:34;;;;;;;0.97;0.40;;;16.20;99.90;;;;;;5070716;28;20342;-81
2021/08/20 04:42:59;;;;;;;0.40;0.40;;;16.20;99.90;;;;;;5068659;28;20219;-81
2021/08/20 04:45:25;;;;;;;1.07;0.97;;;16.30;99.90;;;;;;5066894;28;20230;-83
2021/08/20 04:47:50;;;;;;;0.20;0.20;;;16.30;99.90;;;;;;5072048;28;20275;-84
2021/08/20 04:50:17;;;;;;;1.47;0.33;;;16.30;99.90;;;;;;5067822;28;20290;-82
2021/08/20 04:52:43;;;;;;;0.20;0.20;;;16.30;99.90;;;;;;5070189;28;20679;-82
2021/08/20 04:55:09;;;;;;;0.40;0.40;;;16.40;99.90;;;;;;5065563;28;20192;-83
2021/08/20 04:57:35;;;;;;;0.23;0.23;;;16.40;99.90;;;;;;5062200;28;20648;-81
2021/08/20 05:00:00;;;;;;;0.30;0.30;;;16.50;99.90;;;;;;5073013;28;20216;-79
2021/08/20 05:02:30;;;;;;;1.10;1.00;;;16.70;99.90;;;;;;5063564;28;20242;-80
2021/08/20 05:04:56;;;;;;;4.70;0.70;;;16.80;99.90;;;;;;5073444;28;20204;-79
2021/08/20 05:07:22;;;;;;;0.53;0.30;;;17.00;99.90;;;;;;5064302;28;20192;-83
2021/08/20 05:09:47;;;;;;;0.77;0.30;;;17.00;99.90;;;;;;5060070;28;20209;-82
2021/08/20 05:12:13;;;;;;;0.17;0.17;;;17.10;99.90;;;;;;5055459;28;20189;-80
2021/08/20 05:14:38;;;;;;;0.10;0.10;;;17.10;99.90;;;;;;5068243;28;20243;-82
2021/08/20 05:17:04;;;;;;;0.40;0.40;;;17.10;99.90;;;;;;5071247;28;20218;-81
2021/08/20 05:19:30;;;;;;;2.23;0.70;;;17.20;99.90;;;;;;5070745;28;20208;-81
2021/08/20 05:21:55;;;;;;;0.30;0.30;;;17.20;99.90;;;;;;5069069;28;20214;-80
2021/08/20 05:24:21;;;;;;;0.30;0.30;;;17.20;99.90;;;;;;5062936;28;20217;-81
2021/08/20 05:26:46;;;;;;;0.20;0.20;;;17.30;99.90;;;;;;5062409;28;20176;-82
2021/08/20 05:29:12;;;;;;;0.50;0.50;;;17.30;99.90;;;;;;5054238;28;20250;-81
2021/08/20 05:31:39;;;;;;;0.20;0.20;;;17.30;99.90;;;;;;5064146;28;20205;-82
2021/08/20 05:34:04;;;;;;;0.50;0.50;;;17.30;99.90;;;;;;5064944;28;20187;-82
2021/08/20 05:36:30;;;;;;;0.47;0.20;;;17.30;99.90;;;;;;5059229;28;20186;-82
2021/08/20 05:38:55;;;;;;;0.40;0.40;;;17.30;99.90;;;;;;5068380;28;20212;-82
2021/08/20 05:41:21;;;;;;;0.20;0.20;;;17.40;99.90;;;;;;5065949;28;20192;-82
2021/08/20 05:43:47;;;;;;;1.57;0.40;;;17.40;99.90;;;;;;5068142;28;20199;-82
2021/08/20 05:46:13;;;;;;;0.40;0.40;;;17.50;99.90;;;;;;5075108;28;20213;-80
2021/08/20 05:48:39;;;;;;;0.87;0.40;;;17.60;99.90;;;;;;5065596;28;20184;-84
2021/08/20 05:51:05;;;;;;;0.30;0.30;;;17.80;99.90;;;;;;5068344;28;20283;-84
2021/08/20 05:53:31;;;;;;;0.67;0.67;;;17.90;99.90;;;;;;5059178;28;20212;-81
2021/08/20 05:55:57;;;;;;;0.53;0.53;;;17.90;99.90;;;;;;5072474;28;20192;-82
2021/08/20 05:58:23;;;;;;;0.30;0.30;;;18.00;99.90;;;;;;5069576;28;20214;-81
2021/08/20 06:00:49;;;;;;;0.20;0.20;;;18.10;99.90;;;;;;5069791;28;20208;-81
2021/08/20 06:03:24;;;;;;;0.87;0.70;;;18.10;99.90;;;;;;5065059;28;20272;-81
2021/08/20 06:05:50;;;;;;;0.10;0.10;;;18.10;99.90;;;;;;5068186;28;20212;-81
2021/08/20 06:08:16;;;;;;;0.67;0.53;;;18.20;99.90;;;;;;5067647;28;20185;-80
2021/08/20 06:10:44;;;;;;;0.47;0.47;;;18.30;99.90;;;;;;5065645;28;20254;-82
2021/08/20 06:13:11;;;;;;;0.30;0.30;;;18.40;99.90;;;;;;5061433;28;20225;-82
2021/08/20 06:15:37;;;;;;;0.70;0.70;;;18.60;99.90;;;;;;5067186;28;20352;-82
2021/08/20 06:18:03;;;;;;;0.20;0.20;;;18.90;99.90;;;;;;5069992;28;20196;-82
2021/08/20 06:20:29;;;;;;;0.70;0.40;;;19.00;99.90;;;;;;5055974;28;20213;-82
2021/08/20 06:22:54;;;;;;;0.33;0.33;;;19.10;99.90;;;;;;5064504;28;20185;-82
2021/08/20 06:25:20;;;;;;;0.30;0.30;;;19.10;99.90;;;;;;5075152;28;20208;-82
2021/08/20 06:27:45;;;;;;;0.53;0.53;;;19.10;99.90;;;;;;5063553;28;20188;-81
2021/08/20 06:30:11;;;;;;;2.10;0.67;;;19.10;99.90;;;;;;5065960;28;20205;-83
2021/08/20 06:32:37;;;;;;;0.40;0.40;;;19.00;99.90;;;;;;5055785;28;20178;-83
2021/08/20 06:35:03;;;;;;;0.30;0.30;;;19.00;99.90;;;;;;5076517;28;20554;-83
2021/08/20 06:37:28;;;;;;;0.43;0.43;;;19.20;99.90;;;;;;5060968;28;20753;-82
2021/08/20 06:39:54;;;;;;;0.50;0.50;;;19.40;99.90;;;;;;5062078;28;20212;-83
2021/08/20 06:42:21;;;;;;;0.80;0.40;;;19.50;99.90;;;;;;5055527;28;20565;-84
2021/08/20 06:44:47;;;;;;;0.47;0.47;;;19.60;99.90;;;;;;5059513;28;20197;-83
2021/08/20 06:47:13;;;;;;;0.40;0.40;;;19.70;99.90;;;;;;5069154;28;20185;-83
2021/08/20 06:49:39;;;;;;;0.70;0.70;;;19.50;99.90;;;;;;5067625;28;20281;-83
2021/08/20 06:52:07;;;;;;;0.33;0.23;;;19.40;99.90;;;;;;5067135;28;20278;-82
2021/08/20 06:54:32;;;;;;;0.67;0.67;;;19.50;99.90;;;;;;5067376;28;20189;-82
2021/08/20 06:56:58;;;;;;;0.30;0.30;;;19.70;99.90;;;;;;5061103;28;20194;-83
2021/08/20 06:59:23;;;;;;;0.23;0.23;;;19.70;99.90;;;;;;5064847;28;20240;-83
2021/08/20 07:01:49;;;;;;;0.73;0.40;;;19.70;99.90;;;;;;5061492;28;20192;-82
2021/08/20 07:04:14;;;;;;;0.40;0.40;;;19.70;99.90;;;;;;5059881;28;20208;-81
2021/08/20 07:06:40;;;;;;;0.67;0.60;;;19.80;99.90;;;;;;5065477;28;20181;-83
2021/08/20 07:09:05;;;;;;;0.43;0.43;;;19.80;99.90;;;;;;5059144;28;20181;-83
2021/08/20 07:11:31;;;;;;;0.30;0.30;;;19.90;99.90;;;;;;5069183;28;20538;-81
2021/08/20 07:13:58;;;;;;;0.87;0.43;;;19.90;99.90;;;;;;5065386;28;20248;-80
2021/08/20 07:16:23;;;;;;;0.20;0.20;;;20.00;99.90;;;;;;5066832;28;20181;-82
2021/08/20 07:18:49;;;;;;;0.30;0.30;;;20.00;99.90;;;;;;5054093;28;20204;-85
2021/08/20 07:21:14;;;;;;;0.20;0.20;;;20.10;99.90;;;;;;5065365;28;20590;-81
2021/08/20 07:23:40;;;;;;;0.30;0.30;;;20.10;99.90;;;;;;5060189;28;20222;-85
2021/08/20 07:26:07;;;;;;;0.20;0.20;;;20.00;99.90;;;;;;5068528;28;20317;-82
2021/08/20 07:28:33;;;;;;;0.30;0.30;;;20.00;99.90;;;;;;5066439;28;20258;-83
2021/08/20 07:30:59;;;;;;;0.20;0.20;;;20.20;99.90;;;;;;5055895;28;20680;-83
2021/08/20 07:33:25;;;;;;;0.40;0.30;;;20.10;99.90;;;;;;5064230;28;20354;-83
2021/08/20 07:35:51;;;;;;;0.50;0.50;;;20.40;99.90;;;;;;5071252;28;20221;-83
2021/08/20 07:38:17;;;;;;;0.57;0.57;;;20.50;99.90;;;;;;5071763;28;20188;-83
2021/08/20 07:40:42;;;;;;;0.40;0.40;;;20.70;99.90;;;;;;5059988;28;20301;-83
2021/08/20 07:43:08;;;;;;;0.77;0.70;;;20.90;99.90;;;;;;5071275;28;20189;-83
2021/08/20 07:45:34;;;;;;;3.83;0.53;;;20.90;99.90;;;;;;5068375;28;20197;-82
2021/08/20 07:47:59;;;;;;;0.37;0.33;;;21.10;99.90;;;;;;5072746;28;20192;-82
2021/08/20 07:50:25;;;;;;;0.53;0.53;;;21.30;99.90;;;;;;5071815;28;20281;-83
2021/08/20 07:52:51;;;;;;;0.33;0.33;;;21.20;99.90;;;;;;5067774;28;20594;-83
2021/08/20 07:55:17;;;;;;;0.80;0.60;;;21.20;99.90;;;;;;5073982;28;20208;-83
2021/08/20 07:57:45;;;;;;;0.30;0.30;;;21.10;99.90;;;;;;5071066;28;20177;-83
2021/08/20 08:00:11;;;;;;;0.10;0.10;;;20.90;99.90;;;;;;5067252;28;20197;-84
2021/08/20 08:02:36;;;;;;;0.20;0.20;;;20.90;99.90;;;;;;5070668;28;20186;-83
2021/08/20 08:05:02;;;;;;;0.63;0.40;;;21.00;99.90;;;;;;5069688;28;20276;-83
2021/08/20 08:07:28;;;;;;;0.83;0.63;;;21.30;99.90;;;;;;5073280;28;20519;-82
2021/08/20 08:09:53;;;;;;;0.40;0.40;;;21.60;99.90;;;;;;5073450;28;20209;-83
2021/08/20 08:12:19;;;;;;;0.50;0.50;;;21.30;99.90;;;;;;5073690;28;20205;-83
2021/08/20 08:14:44;;;;;;;0.87;0.30;;;21.00;99.90;;;;;;5064150;28;20234;-83
2021/08/20 08:17:10;;;;;;;0.97;0.60;;;20.90;99.90;;;;;;5074857;28;20207;-83
2021/08/20 08:19:35;;;;;;;0.30;0.30;;;21.20;99.90;;;;;;5074509;28;20204;-83
2021/08/20 08:22:01;;;;;;;0.40;0.40;;;21.40;99.90;;;;;;5073466;28;20656;-83
2021/08/20 08:24:28;;;;;;;0.30;0.30;;;21.60;99.90;;;;;;5067552;28;20677;-83
2021/08/20 08:26:54;;;;;;;0.70;0.43;;;21.70;99.90;;;;;;5059930;28;20177;-83
2021/08/20 08:29:19;;;;;;;0.60;0.60;;;22.00;99.90;;;;;;5056466;28;20190;-83
2021/08/20 08:31:45;;;;;;;0.20;0.20;;;21.90;99.90;;;;;;5057945;28;20177;-84
2021/08/20 08:34:10;;;;;;;0.30;0.30;;;22.00;99.90;;;;;;5067331;28;20173;-82
2021/08/20 08:36:36;;;;;;;0.60;0.53;;;22.20;99.90;;;;;;5062867;28;20662;-83
2021/08/20 08:39:02;;;;;;;0.40;0.40;;;22.30;99.90;;;;;;5071736;28;20215;-83
2021/08/20 08:41:30;;;;;;;0.30;0.30;;;22.20;99.90;;;;;;5069122;28;20182;-83
2021/08/20 08:43:56;;;;;;;0.50;0.50;;;22.20;99.90;;;;;;5068646;28;20219;-83
2021/08/20 08:46:22;;;;;;;1.97;0.50;;;22.30;99.90;;;;;;5064084;28;20216;-83
2021/08/20 08:48:48;;;;;;;0.20;0.20;;;22.40;99.90;;;;;;5064859;28;20184;-83
2021/08/20 08:51:17;;;;;;;0.37;0.37;;;22.30;99.90;;;;;;5070881;28;20205;-83
2021/08/20 08:53:42;;;;;;;0.67;0.47;;;22.10;99.90;;;;;;5069354;28;20204;-83
2021/08/20 08:56:08;;;;;;;0.47;0.47;;;22.10;99.90;;;;;;5069973;28;20282;-81
2021/08/20 08:58:33;;;;;;;0.50;0.40;;;21.90;99.90;;;;;;5070564;28;20193;-82
2021/08/20 09:00:59;;;;;;;0.70;0.70;;;22.00;99.90;;;;;;5068871;28;20212;-81
2021/08/20 09:03:29;;;;;;;0.70;0.70;;;22.30;99.90;;;;;;5072091;28;20192;-82
2021/08/20 09:05:56;;;;;;;0.63;0.63;;;22.50;99.90;;;;;;5058383;28;20271;-82
2021/08/20 09:08:24;;;;;;;0.43;0.43;;;22.70;99.90;;;;;;5070041;28;20554;-82
2021/08/20 09:10:57;;;;;;;0.40;0.40;;;23.00;99.90;;;;;;5071652;28;20290;-81
2021/08/20 09:13:24;;;;;;;0.53;0.40;;;23.10;99.90;;;;;;5070293;28;20605;-83
2021/08/20 09:16:13;;;;;;;0.47;0.37;;;23.30;99.90;;;;;;5072288;28;20196;-82
2021/08/20 09:18:39;;;;;;;0.40;0.40;;;23.50;99.90;;;;;;5065026;28;20181;-82
2021/08/20 09:21:06;;;;;;;0.60;0.60;;;23.40;99.90;;;;;;5070130;28;20213;-82
2021/08/20 09:23:32;;;;;;;0.20;0.20;;;23.50;99.90;;;;;;5067914;28;20209;-83
2021/08/20 09:25:58;;;;;;;0.20;0.20;;;23.40;99.90;;;;;;5073568;28;20255;-81
2021/08/20 09:28:29;;;;;;;0.53;0.53;;;23.60;99.90;;;;;;5062940;28;20177;-82
2021/08/20 09:30:55;;;;;;;0.30;0.30;;;23.60;99.90;;;;;;5066374;28;20201;-82
2021/08/20 09:33:27;;;;;;;0.67;0.43;;;23.80;99.90;;;;;;5062795;28;20614;-82
2021/08/20 09:36:01;;;;;;;0.43;0.43;;;24.20;99.90;;;;;;5068085;28;20185;-82
2021/08/20 09:38:28;;;;;;;0.43;0.37;;;23.70;99.90;;;;;;5067823;28;20195;-81
2021/08/20 09:41:07;;;;;;;1.80;0.70;;;24.10;99.90;;;;;;5060235;28;20695;-83
2021/08/20 09:43:34;;;;;;;0.50;0.50;;;24.80;99.90;;;;;;5060114;28;20262;-83
2021/08/20 09:46:00;;;;;;;0.50;0.50;;;25.30;99.90;;;;;;5067946;28;20278;-81
2021/08/20 09:48:42;;;;;;;0.40;0.40;;;25.40;99.90;;;;;;5064040;28;20186;-84
2021/08/20 09:51:08;;;;;;;0.37;0.37;;;25.30;99.90;;;;;;5063082;28;20221;-84
2021/08/20 09:53:34;;;;;;;0.83;0.70;;;25.40;99.90;;;;;;5062312;28;20188;-84
2021/08/20 09:56:04;;;;;;;0.50;0.50;;;25.60;99.90;;;;;;5061255;28;20652;-83
2021/08/20 09:58:32;;;;;;;0.30;0.30;;;25.00;99.90;;;;;;5069306;28;20277;-84
2021/08/20 10:01:00;;;;;;;0.73;0.57;;;25.30;99.90;;;;;;5067312;28;20212;-84
2021/08/20 10:03:26;;;;;;;0.60;0.40;;;25.00;99.90;;;;;;5067843;28;20664;-83
2021/08/20 10:05:53;;;;;;;0.30;0.30;;;24.80;99.90;;;;;;5052881;28;20212;-82
2021/08/20 10:08:20;;;;;;;0.40;0.40;;;25.30;99.90;;;;;;5068575;28;20185;-83
2021/08/20 10:10:48;;;;;;;0.77;0.70;;;25.50;99.90;;;;;;5056395;28;20201;-83
2021/08/20 10:13:16;;;;;;;0.57;0.40;;;25.90;99.90;;;;;;5068698;28;20185;-83
2021/08/20 10:15:42;;;;;;;0.40;0.30;;;26.20;99.90;;;;;;5070497;28;20559;-83
2021/08/20 10:18:09;;;;;;;0.40;0.40;;;26.40;99.90;;;;;;5066921;28;20197;-83
2021/08/20 10:20:35;;;;;;;0.77;0.30;;;26.70;99.90;;;;;;5064335;28;20201;-84
2021/08/20 10:23:02;;;;;;;0.43;0.43;;;27.00;99.90;;;;;;5066696;28;20547;-85
2021/08/20 10:25:30;;;;;;;0.40;0.40;;;27.10;99.90;;;;;;5066383;28;20220;-83
2021/08/20 10:27:56;;;;;;;0.20;0.20;;;27.30;99.90;;;;;;5067337;28;20181;-82
2021/08/20 10:30:22;;;;;;;0.37;0.37;;;27.60;99.90;;;;;;5068518;28;20193;-83
2021/08/20 10:33:01;;;;;;;0.60;0.60;;;27.50;99.90;;;;;;5067752;28;20196;-83
2021/08/20 10:35:49;;;;;;;0.27;0.27;;;27.20;99.90;;;;;;5067345;28;20552;-83
2021/08/20 10:38:38;;;;;;;0.40;0.40;;;27.00;99.90;;;;;;5067168;28;20185;-83
2021/08/20 10:41:21;;;;;;;0.77;0.30;;;26.80;99.90;;;;;;5068371;28;20267;-83
2021/08/20 10:43:47;;;;;;;0.50;0.30;;;26.60;99.90;;;;;;5066039;28;20177;-84
2021/08/20 10:46:31;;;;;;;0.20;0.20;;;26.30;99.90;;;;;;5063106;28;20216;-83
2021/08/20 10:49:16;;;;;;;0.20;0.20;;;26.20;99.90;;;;;;5063566;28;20217;-83
2021/08/20 10:51:55;;;;;;;0.37;0.37;;;25.70;99.90;;;;;;5064898;28;20197;-83
2021/08/20 10:54:41;;;;;;;0.20;0.20;;;25.60;99.90;;;;;;5065204;28;20191;-83
2021/08/20 10:57:27;;;;;;;1.60;0.50;;;25.70;99.90;;;;;;5068638;28;20177;-82
2021/08/20 10:59:55;;;;;;;0.57;0.57;;;25.70;99.90;;;;;;5056679;28;20253;-83
2021/08/20 11:02:22;;;;;;;0.20;0.20;;;25.80;99.90;;;;;;5068374;28;20187;-83
2021/08/20 11:04:59;;;;;;;0.67;0.60;;;25.70;99.90;;;;;;5065453;28;20205;-84
2021/08/20 11:07:36;;;;;;;0.47;0.40;;;25.60;99.90;;;;;;5060278;28;20186;-81
2021/08/20 11:10:08;;;;;;;0.40;0.40;;;25.80;99.90;;;;;;5063529;28;20207;-83
2021/08/20 11:12:47;;;;;;;0.30;0.30;;;25.80;99.90;;;;;;5062962;28;20704;-81
2021/08/20 11:15:25;;;;;;;0.10;0.10;;;26.00;99.90;;;;;;5067580;28;20183;-83
2021/08/20 11:17:58;;;;;;;0.40;0.40;;;25.90;99.90;;;;;;5065811;28;20188;-83
2021/08/20 11:20:41;;;;;;;0.50;0.30;;;26.00;99.90;;;;;;5058286;28;20225;-84
2021/08/20 11:23:13;;;;;;;0.60;0.60;;;26.00;99.90;;;;;;5060028;28;20565;-82
2021/08/20 11:25:43;;;;;;;0.50;0.37;;;25.90;99.90;;;;;;5060490;28;20584;-83
2021/08/20 11:28:16;;;;;;;0.30;0.30;;;25.80;99.90;;;;;;5073384;28;20182;-82
2021/08/20 11:30:42;;;;;;;0.33;0.33;;;25.40;99.90;;;;;;5065331;28;20678;-83
2021/08/20 11:33:16;;;;;;;0.30;0.30;;;24.70;99.90;;;;;;5062913;28;20268;-83
2021/08/20 11:35:45;;;;;;;0.17;0.17;;;24.10;99.90;;;;;;5063003;28;20794;-83
2021/08/20 11:38:10;;;;;;;0.40;0.40;;;24.60;99.90;;;;;;5060109;28;20213;-86
2021/08/20 11:40:47;;;;;;;0.97;0.50;;;24.60;99.90;;;;;;5064710;28;20255;-84
2021/08/20 11:43:13;;;;;;;0.57;0.40;;;24.70;99.90;;;;;;5063403;28;20196;-84
2021/08/20 11:45:39;;;;;;;0.20;0.20;;;24.50;99.90;;;;;;5070028;28;20696;-83
2021/08/20 11:48:05;;;;;;;1.23;0.47;;;24.30;99.90;;;;;;5062061;28;20673;-83
2021/08/20 11:50:33;;;;;;;0.20;0.20;;;24.60;99.90;;;;;;5068525;28;20197;-84
2021/08/20 11:52:59;;;;;;;0.30;0.30;;;24.60;99.90;;;;;;5068099;28;20265;-84
2021/08/20 11:55:25;;;;;;;0.67;0.50;;;24.90;99.90;;;;;;5068861;28;20196;-84
2021/08/20 11:57:52;;;;;;;0.30;0.30;;;25.00;99.90;;;;;;5066775;28;20209;-82
2021/08/20 12:00:17;;;;;;;0.23;0.23;;;25.00;99.90;;;;;;5067532;28;20574;-83
2021/08/20 12:02:44;;;;;;;0.47;0.43;;;25.30;99.90;;;;;;5064465;28;20182;-84
2021/08/20 12:05:18;;;;;;;0.50;0.50;;;24.80;99.90;;;;;;5063821;28;20213;-84
2021/08/20 12:07:45;;;;;;;0.40;0.40;;;24.20;99.90;;;;;;5068236;28;20540;-84
2021/08/20 12:10:13;;;;;;;0.20;0.20;;;23.90;99.90;;;;;;5063181;28;20225;-84
2021/08/20 12:12:40;;;;;;;0.40;0.40;;;23.60;99.90;;;;;;5065688;28;20603;-84
2021/08/20 12:15:08;;;;;;;0.40;0.40;;;23.60;99.90;;;;;;5066984;28;20402;-84
2021/08/20 12:17:34;;;;;;;0.50;0.50;;;23.80;99.90;;;;;;5063838;28;20556;-84
2021/08/20 12:20:01;;;;;;;0.27;0.27;;;23.90;99.90;;;;;;5070985;28;20292;-84
2021/08/20 12:22:35;;;;;;;0.30;0.30;;;24.30;99.90;;;;;;5066423;28;20242;-84
2021/08/20 12:25:14;;;;;;;0.93;0.83;;;24.80;99.90;;;;;;5084773;28;20259;-84
2021/08/20 12:27:41;;;;;;;0.50;0.50;;;24.30;99.90;;;;;;5060542;28;20675;-84
2021/08/20 12:30:11;;;;;;;0.20;0.20;;;24.80;99.90;;;;;;5067757;28;20204;-83
2021/08/20 12:32:40;;;;;;;0.40;0.40;;;24.90;99.90;;;;;;5062809;28;20182;-84
2021/08/20 12:35:14;;;;;;;0.30;0.30;;;24.70;99.90;;;;;;5078914;28;20200;-84
2021/08/20 12:37:40;;;;;;;1.37;0.87;;;25.30;99.90;;;;;;5061459;28;20192;-84
2021/08/20 12:40:06;;;;;;;0.23;0.23;;;25.20;99.90;;;;;;5068463;28;20761;-85
2021/08/20 12:42:32;;;;;;;1.13;0.20;;;25.10;99.90;;;;;;5070727;28;20267;-83
2021/08/20 12:45:08;;;;;;;0.30;0.30;;;25.40;99.90;;;;;;5065795;28;20224;-84
2021/08/20 12:47:34;;;;;;;0.30;0.30;;;25.50;99.90;;;;;;5072977;28;20556;-84